Clinton, OK

4:48 PM CST on December 06, 2016 (GMT -0600)
Clinton | | Change Station

Elev 1578 ft 35.52 °N, 98.97 °W | Updated 0 second ago

Clear
Clear
42.7 °F
Feels Like 43 °F
N
2.1
Wind Variable Wind from North
Gusts 9.1 mph

Today
High -- | Low -- °F
--% Chance of Precip.
Yesterday
High -- | Low -- °F
Precip. -- in
Pressure 30.09 in
Visibility -9999.0 miles
Clouds Clear
Windchill 43 °F
Dew Point 21 °F
Humidity 29%
Rainfall 0.09 in
Snow Depth Not available.
7:31 AM 5:22 PM
Waxing Crescent, 46% visible
METAR KCLK 062255Z AUTO 03007KT CLR 05/M09 A3009 RMK AO2 PWINO
Pressure 30.09 in
Visibility -9999.0 miles
Clouds Clear
Windchill 43 °F
Dew Point 21 °F
Humidity 29%
Rainfall 0.09 in
Snow Depth Not available.
7:31 AM 5:22 PM
Waxing Crescent, 46% visible
METAR KCLK 062255Z AUTO 03007KT CLR 05/M09 A3009 RMK AO2 PWINO

10-Day Weather Forecast

Almanac

Astronomy

Dec. 06, 2016 Rise Set
Actual Time
Civil Twilight
Nautical Twilight
Astronomical Twilight
Moon
Length of Visible Light
Length of Day
Tomorrow will be .
, % of the Moon is Illuminated

Today's Extremes

State Highs State Lows

Community

WunderPhotos

Upload Photos

1,956,042 photos uploaded!

WunderBlog® & News

Nearby

Air Quality

  Air Quality AQ Index Pollutant
Not available.

Snow Depth

Station Depth Elevation

Earthquake Activity

City Distance Mag. Time & Date
Minimum magnitude displayed is 2.5.

Coastal Water Temperatures

Place Temperature

Stations

Nearby Weather Stations

Station Location Temp. Windchill Dew Point Humidity Wind Precip. Elev Updated Type
                   

Watches & Warnings

There are currently no watches in effect.